ENOV/HOV METAR and TAF weather

Enter ICAO airport designator
Station Type Date Time Source
ENOV METAR 2020/04/06 20:50 UTC NOAA

ENOV 062050Z 26007KT 200V300 9999 -RA FEW025 SCT035 BKN040 09/04 Q1012 RMK WIND AT 2175FT 19013KT


Station Type Date Time Source
ENOV Decoded METAR 2020/04/06 20:50 UTC NOAA

Orsta-Volda / Hovden, Norway (ENOV) 62-11N 006-04E 74M
Apr 06, 2020 - 04:50 PM EDT / 2020.04.06 2050 UTC
Wind: from the W (260 degrees) at 8 MPH (7 KT) (direction variable):0
Visibility: greater than 7 mile(s):0
Sky conditions: mostly cloudy
Weather: light rain
Temperature: 48 F (9 C)
Dew Point: 39 F (4 C)
Relative Humidity: 70%
Pressure (altimeter): 29.88 in. Hg (1012 hPa)
ob: ENOV 062050Z 26007KT 200V300 9999 -RA FEW025 SCT035 BKN040 09/04 Q1012 RMK WIND AT 2175FT 19013KT
cycle: 21

Station Type Date Time Source
ENOV TAF UTC NOAA

Error!

Example: see airport list